Seneimaru — JG5357 — position and weather

sailwx.info

Track history (hours):
 
Tides and Currents Weather Stations Pressure Air Temp Water Temp Dewpoint Dewpoint Depression Visibility Wind Speed Wind Dir Waves Ship Positions

Seneimaru

Last reported at 2016-May-31 04:34 UTC. Time now 2016-Jun-01 07:27 UTC.
Position N 35°05' E 139°44'.

Length 72 m; draft 5.9 m.

Type: Cargo ship. MMSI: 431100477.

Date/timePositionNaut miles runAvg speedWind from/ knotsBaromVisibWave heightAir tempDewpointWater temp
2016-May-31 04:34N 35°05' E 139°44'1111.4
2016-May-31 03:33N 35°17' E 139°45'1010.0
2016-May-31 02:33N 35°27' E 139°46'4 4.1
2016-May-31 01:31N 35°30' E 139°43'0 0.0
2016-May-31 00:31N 35°30' E 139°43'0 0.0
2016-May-30 23:31N 35°30' E 139°43'0 0.0
2016-May-30 22:31N 35°30' E 139°43'0 0.0
2016-May-30 21:31N 35°30' E 139°43'0 0.0
2016-May-30 20:31N 35°30' E 139°43'0 0.0
2016-May-30 19:31N 35°30' E 139°43'0 0.0
2016-May-30 18:31N 35°30' E 139°43'0 0.0
2016-May-30 17:31N 35°30' E 139°43'0 0.0
2016-May-30 16:31N 35°30' E 139°43'0 0.0
2016-May-30 15:31N 35°30' E 139°43'0 0.0
2016-May-30 14:31N 35°30' E 139°43'0 0.0
2016-May-30 13:31N 35°30' E 139°43'0 0.0
2016-May-30 12:31N 35°30' E 139°43'0 0.0
2016-May-30 11:31N 35°30' E 139°43'0 0.0
2016-May-30 10:31N 35°30' E 139°43'0 0.0
2016-May-30 09:31N 35°30' E 139°43'0 0.0
2016-May-30 08:31N 35°30' E 139°43'0 0.0
2016-May-30 07:31N 35°30' E 139°43'0 0.0
2016-May-30 06:31N 35°30' E 139°43'0 0.0
2016-May-30 05:31N 35°30' E 139°43'0 0.0
2016-May-30 04:31N 35°30' E 139°43'0 0.0
2016-May-30 03:31N 35°30' E 139°43'0 0.0
2016-May-30 02:31N 35°30' E 139°43'0 0.0
2016-May-30 01:31N 35°30' E 139°43'0 0.0
2016-May-30 00:31N 35°30' E 139°43'0 0.0
2016-May-29 23:31N 35°30' E 139°43'0 0.0
2016-May-29 22:31N 35°30' E 139°43'2 1.6
2016-May-29 21:33N 35°29' E 139°42'5 5.3
2016-May-29 20:32N 35°24' E 139°44'0 0.1
2016-May-29 19:32N 35°24' E 139°44'0 0.1
2016-May-29 18:32N 35°24' E 139°44'0 0.0
2016-May-29 17:32N 35°24' E 139°44'0 0.0
2016-May-29 16:32N 35°24' E 139°44'0 0.0
2016-May-29 15:32N 35°24' E 139°44'0 0.1
2016-May-29 14:32N 35°24' E 139°44'0 0.0
2016-May-29 13:32N 35°24' E 139°44'3 3.1
2016-May-29 12:33N 35°21' E 139°43'1211.9
2016-May-29 11:33N 35°09' E 139°46'1312.5
2016-May-29 10:32N 34°56' E 139°44'1 0.0
2016-May-28 04:26N 34°55' E 139°45'1011.1
2016-May-28 03:33N 35°05' E 139°44'1212.0
2016-May-28 02:33N 35°17' E 139°45'1110.7
2016-May-28 01:34N 35°27' E 139°46'4 3.9
2016-May-28 00:33N 35°30' E 139°43'0 0.0
2016-May-27 23:33N 35°30' E 139°43'0 0.0
2016-May-27 22:33N 35°30' E 139°43'0 0.0
2016-May-27 21:33N 35°30' E 139°43'1 0.8
2016-May-27 20:33N 35°29' E 139°43'6 5.7
2016-May-27 19:32N 35°24' E 139°44'0 0.0
2016-May-27 18:32N 35°24' E 139°44'0 0.0
2016-May-27 17:32N 35°24' E 139°44'0 0.0
2016-May-27 16:32N 35°24' E 139°44'7 7.4
2016-May-27 15:33N 35°17' E 139°46'1211.6
2016-May-27 14:34N 35°05' E 139°45'9 0.3
2016-May-26 04:33N 34°56' E 139°44'1111.2
2016-May-26 03:33N 35°07' E 139°45'1110.9
2016-May-26 02:34N 35°18' E 139°44'1010.2
2016-May-26 01:33N 35°28' E 139°47'4 3.9
2016-May-26 00:33N 35°30' E 139°43'0 0.0
2016-May-25 23:33N 35°30' E 139°43'0 0.0
2016-May-25 22:30N 35°30' E 139°43'0 0.0
2016-May-25 21:33N 35°30' E 139°43'1 0.6
2016-May-25 20:34N 35°30' E 139°43'6 5.6
2016-May-25 19:33N 35°24' E 139°45'0 0.0
2016-May-25 18:33N 35°24' E 139°45'0 0.0
2016-May-25 17:33N 35°24' E 139°45'0 0.0
2016-May-25 16:33N 35°24' E 139°45'0 0.0
2016-May-25 15:33N 35°24' E 139°45'0 0.0
2016-May-25 14:33N 35°24' E 139°45'0 0.0
2016-May-25 13:33N 35°24' E 139°45'6 6.1
2016-May-25 12:33N 35°18' E 139°45'1211.9
2016-May-25 11:33N 35°06' E 139°45'92 3.8
2016-May-24 11:21N 33°41' E 140°30'7 8.2
2016-May-24 10:32N 33°47' E 140°26'9 8.3
2016-May-24 09:31N 33°55' E 140°21'2210.2
2016-May-24 07:23N 34°14' E 140°10'910.3
2016-May-24 06:30N 34°22' E 140°05'1010.5
2016-May-24 05:32N 34°31' E 139°59'1010.2
2016-May-24 04:31N 34°41' E 139°54'1211.1
2016-May-24 03:28N 34°51' E 139°47'1011.1
2016-May-24 02:33N 35°01' E 139°43'1111.6
2016-May-24 01:33N 35°12' E 139°46'1211.6
2016-May-24 00:34N 35°23' E 139°42'7 6.9
2016-May-23 23:33N 35°30' E 139°44'1 0.9
2016-May-23 22:28N 35°30' E 139°43'0 0.0
2016-May-23 21:31N 35°30' E 139°43'0 0.0
2016-May-23 20:31N 35°30' E 139°43'0 0.0
2016-May-23 19:31N 35°30' E 139°43'0 0.0
2016-May-23 18:31N 35°30' E 139°43'0 0.0
2016-May-23 17:31N 35°30' E 139°43'0 0.0
2016-May-23 16:31N 35°30' E 139°43'0 0.0
2016-May-23 15:31N 35°30' E 139°43'0 0.0
2016-May-23 14:31N 35°30' E 139°43'0 0.0
2016-May-23 13:31N 35°30' E 139°43'0 0.0
2016-May-23 12:31N 35°30' E 139°43'0 0.0
2016-May-23 11:31N 35°30' E 139°43'0 0.0
2016-May-23 10:31N 35°30' E 139°43'0 0.0
2016-May-23 09:31N 35°30' E 139°43'0 0.0
2016-May-23 08:31N 35°30' E 139°43'0 0.0
2016-May-23 07:31N 35°30' E 139°43'0 0.0
2016-May-23 06:31N 35°30' E 139°43'0 0.0
2016-May-23 05:31N 35°30' E 139°43'0 0.0
2016-May-23 04:31N 35°30' E 139°43'0 0.0
2016-May-23 03:31N 35°30' E 139°43'3 3.4
2016-May-23 02:33N 35°27' E 139°43'3 3.2
2016-May-23 01:31N 35°24' E 139°44'0 0.0
2016-May-23 00:31N 35°24' E 139°44'0 0.0
2016-May-22 23:31N 35°24' E 139°44'0 0.0
2016-May-22 22:31N 35°24' E 139°44'0 0.0
2016-May-22 21:31N 35°24' E 139°44'0 0.0
2016-May-22 20:31N 35°24' E 139°44'0 0.1
2016-May-22 19:31N 35°24' E 139°44'0 0.0
2016-May-22 18:33N 35°24' E 139°44'0 0.0
2016-May-22 17:33N 35°24' E 139°44'2 2.0
2016-May-22 16:33N 35°22' E 139°44'1211.6
2016-May-22 15:33N 35°10' E 139°47'1212.2
2016-May-22 14:33N 34°58' E 139°43'  
Track history (hours):
 
Tides and Currents Weather Stations Pressure Air Temp Water Temp Dewpoint Dewpoint Depression Visibility Wind Speed Wind Dir Waves Ship Positions

Seneimaru

Last reported at 2016-May-31 04:34 UTC. Time now 2016-Jun-01 07:27 UTC.
Position N 35°05' E 139°44'.

Length 72 m; draft 5.9 m.

Type: Cargo ship. MMSI: 431100477.

Date/timePositionNaut miles runAvg speedWind from/ knotsBaromVisibWave heightAir tempDewpointWater temp
2016-May-31 04:34N 35°05' E 139°44'1111.4
2016-May-31 03:33N 35°17' E 139°45'1010.0
2016-May-31 02:33N 35°27' E 139°46'4 4.1
2016-May-31 01:31N 35°30' E 139°43'0 0.0
2016-May-31 00:31N 35°30' E 139°43'0 0.0
2016-May-30 23:31N 35°30' E 139°43'0 0.0
2016-May-30 22:31N 35°30' E 139°43'0 0.0
2016-May-30 21:31N 35°30' E 139°43'0 0.0
2016-May-30 20:31N 35°30' E 139°43'0 0.0
2016-May-30 19:31N 35°30' E 139°43'0 0.0
2016-May-30 18:31N 35°30' E 139°43'0 0.0
2016-May-30 17:31N 35°30' E 139°43'0 0.0
2016-May-30 16:31N 35°30' E 139°43'0 0.0
2016-May-30 15:31N 35°30' E 139°43'0 0.0
2016-May-30 14:31N 35°30' E 139°43'0 0.0
2016-May-30 13:31N 35°30' E 139°43'0 0.0
2016-May-30 12:31N 35°30' E 139°43'0 0.0
2016-May-30 11:31N 35°30' E 139°43'0 0.0
2016-May-30 10:31N 35°30' E 139°43'0 0.0
2016-May-30 09:31N 35°30' E 139°43'0 0.0
2016-May-30 08:31N 35°30' E 139°43'0 0.0
2016-May-30 07:31N 35°30' E 139°43'0 0.0
2016-May-30 06:31N 35°30' E 139°43'0 0.0
2016-May-30 05:31N 35°30' E 139°43'0 0.0
2016-May-30 04:31N 35°30' E 139°43'0 0.0
2016-May-30 03:31N 35°30' E 139°43'0 0.0
2016-May-30 02:31N 35°30' E 139°43'0 0.0
2016-May-30 01:31N 35°30' E 139°43'0 0.0
2016-May-30 00:31N 35°30' E 139°43'0 0.0
2016-May-29 23:31N 35°30' E 139°43'0 0.0
2016-May-29 22:31N 35°30' E 139°43'2 1.6
2016-May-29 21:33N 35°29' E 139°42'5 5.3
2016-May-29 20:32N 35°24' E 139°44'0 0.1
2016-May-29 19:32N 35°24' E 139°44'0 0.1
2016-May-29 18:32N 35°24' E 139°44'0 0.0
2016-May-29 17:32N 35°24' E 139°44'0 0.0
2016-May-29 16:32N 35°24' E 139°44'0 0.0
2016-May-29 15:32N 35°24' E 139°44'0 0.1
2016-May-29 14:32N 35°24' E 139°44'0 0.0
2016-May-29 13:32N 35°24' E 139°44'3 3.1
2016-May-29 12:33N 35°21' E 139°43'1211.9
2016-May-29 11:33N 35°09' E 139°46'1312.5
2016-May-29 10:32N 34°56' E 139°44'1 0.0
2016-May-28 04:26N 34°55' E 139°45'1011.1
2016-May-28 03:33N 35°05' E 139°44'1212.0
2016-May-28 02:33N 35°17' E 139°45'1110.7
2016-May-28 01:34N 35°27' E 139°46'4 3.9
2016-May-28 00:33N 35°30' E 139°43'0 0.0
2016-May-27 23:33N 35°30' E 139°43'0 0.0
2016-May-27 22:33N 35°30' E 139°43'0 0.0
2016-May-27 21:33N 35°30' E 139°43'1 0.8
2016-May-27 20:33N 35°29' E 139°43'6 5.7
2016-May-27 19:32N 35°24' E 139°44'0 0.0
2016-May-27 18:32N 35°24' E 139°44'0 0.0
2016-May-27 17:32N 35°24' E 139°44'0 0.0
2016-May-27 16:32N 35°24' E 139°44'7 7.4
2016-May-27 15:33N 35°17' E 139°46'1211.6
2016-May-27 14:34N 35°05' E 139°45'9 0.3
2016-May-26 04:33N 34°56' E 139°44'1111.2
2016-May-26 03:33N 35°07' E 139°45'1110.9
2016-May-26 02:34N 35°18' E 139°44'1010.2
2016-May-26 01:33N 35°28' E 139°47'4 3.9
2016-May-26 00:33N 35°30' E 139°43'0 0.0
2016-May-25 23:33N 35°30' E 139°43'0 0.0
2016-May-25 22:30N 35°30' E 139°43'0 0.0
2016-May-25 21:33N 35°30' E 139°43'1 0.6
2016-May-25 20:34N 35°30' E 139°43'6 5.6
2016-May-25 19:33N 35°24' E 139°45'0 0.0
2016-May-25 18:33N 35°24' E 139°45'0 0.0
2016-May-25 17:33N 35°24' E 139°45'0 0.0
2016-May-25 16:33N 35°24' E 139°45'0 0.0
2016-May-25 15:33N 35°24' E 139°45'0 0.0
2016-May-25 14:33N 35°24' E 139°45'0 0.0
2016-May-25 13:33N 35°24' E 139°45'6 6.1
2016-May-25 12:33N 35°18' E 139°45'1211.9
2016-May-25 11:33N 35°06' E 139°45'92 3.8
2016-May-24 11:21N 33°41' E 140°30'7 8.2
2016-May-24 10:32N 33°47' E 140°26'9 8.3
2016-May-24 09:31N 33°55' E 140°21'2210.2
2016-May-24 07:23N 34°14' E 140°10'910.3
2016-May-24 06:30N 34°22' E 140°05'1010.5
2016-May-24 05:32N 34°31' E 139°59'1010.2
2016-May-24 04:31N 34°41' E 139°54'1211.1
2016-May-24 03:28N 34°51' E 139°47'1011.1
2016-May-24 02:33N 35°01' E 139°43'1111.6
2016-May-24 01:33N 35°12' E 139°46'1211.6
2016-May-24 00:34N 35°23' E 139°42'7 6.9
2016-May-23 23:33N 35°30' E 139°44'1 0.9
2016-May-23 22:28N 35°30' E 139°43'0 0.0
2016-May-23 21:31N 35°30' E 139°43'0 0.0
2016-May-23 20:31N 35°30' E 139°43'0 0.0
2016-May-23 19:31N 35°30' E 139°43'0 0.0
2016-May-23 18:31N 35°30' E 139°43'0 0.0
2016-May-23 17:31N 35°30' E 139°43'0 0.0
2016-May-23 16:31N 35°30' E 139°43'0 0.0
2016-May-23 15:31N 35°30' E 139°43'0 0.0
2016-May-23 14:31N 35°30' E 139°43'0 0.0
2016-May-23 13:31N 35°30' E 139°43'0 0.0
2016-May-23 12:31N 35°30' E 139°43'0 0.0
2016-May-23 11:31N 35°30' E 139°43'0 0.0
2016-May-23 10:31N 35°30' E 139°43'0 0.0
2016-May-23 09:31N 35°30' E 139°43'0 0.0
2016-May-23 08:31N 35°30' E 139°43'0 0.0
2016-May-23 07:31N 35°30' E 139°43'0 0.0
2016-May-23 06:31N 35°30' E 139°43'0 0.0
2016-May-23 05:31N 35°30' E 139°43'0 0.0
2016-May-23 04:31N 35°30' E 139°43'0 0.0
2016-May-23 03:31N 35°30' E 139°43'3 3.4
2016-May-23 02:33N 35°27' E 139°43'3 3.2
2016-May-23 01:31N 35°24' E 139°44'0 0.0
2016-May-23 00:31N 35°24' E 139°44'0 0.0
2016-May-22 23:31N 35°24' E 139°44'0 0.0
2016-May-22 22:31N 35°24' E 139°44'0 0.0
2016-May-22 21:31N 35°24' E 139°44'0 0.0
2016-May-22 20:31N 35°24' E 139°44'0 0.1
2016-May-22 19:31N 35°24' E 139°44'0 0.0
2016-May-22 18:33N 35°24' E 139°44'0 0.0
2016-May-22 17:33N 35°24' E 139°44'2 2.0
2016-May-22 16:33N 35°22' E 139°44'1211.6
2016-May-22 15:33N 35°10' E 139°47'1212.2
2016-May-22 14:33N 34°58' E 139°43'  

Dump ship's entire track history